Time;durP1;ratioP1;P1;durP2;ratioP2;P2;SDS_P1;SDS_P2;PMS_P1;PMS_P2;Temp;Humidity;BMP_temperature;BMP_pressure;BME280_temperature;BME280_humidity;BME280_pressure;Samples;Min_cycle;Max_cycle;Signal;HPM_P1;HPM_P2
2022/03/14 00:01:31;;;;;;;21.43;8.20;;;;;;;38.70;42.93;100798.28;5096089;28;20408;-69
2022/03/14 00:03:59;;;;;;;20.60;8.90;;;;;;;38.69;42.88;100796.69;5096062;28;20450;-69
2022/03/14 00:06:28;;;;;;;19.70;7.77;;;;;;;38.70;42.66;100792.06;5079172;28;20420;-67
2022/03/14 00:08:57;;;;;;;17.00;8.30;;;;;;;38.69;43.16;100780.41;5095996;28;20416;-67
2022/03/14 00:11:27;;;;;;;21.30;7.63;;;;;;;38.55;43.14;100773.47;5096060;28;20443;-69
2022/03/14 00:13:56;;;;;;;13.57;7.60;;;;;;;38.40;43.56;100772.00;5095717;28;20412;-67
2022/03/14 00:16:25;;;;;;;39.50;10.10;;;;;;;38.37;43.83;100754.47;5096258;28;21019;-69
2022/03/14 00:18:53;;;;;;;16.70;7.10;;;;;;;38.54;43.76;100761.84;5095667;28;20427;-67
2022/03/14 00:21:24;;;;;;;25.50;11.20;;;;;;;38.57;42.79;100755.03;5095719;28;20418;-70
2022/03/14 00:23:55;;;;;;;18.33;6.97;;;;;;;38.65;42.34;100757.75;5095632;28;20497;-69
2022/03/14 00:26:23;;;;;;;18.70;8.17;;;;;;;38.69;42.89;100757.94;5095646;28;20507;-69
2022/03/14 00:28:49;;;;;;;14.00;7.57;;;;;;;38.36;43.63;100749.31;5095391;28;20932;-67
2022/03/14 00:31:16;;;;;;;24.93;7.10;;;;;;;38.22;43.34;100748.59;5113805;28;20408;-69
2022/03/14 00:33:42;;;;;;;21.00;8.70;;;;;;;38.40;43.49;100751.13;5095468;28;20831;-70
2022/03/14 00:36:09;;;;;;;23.00;9.70;;;;;;;38.41;43.39;100750.00;5095162;28;20989;-68
2022/03/14 00:38:40;;;;;;;15.50;8.10;;;;;;;38.13;44.02;100749.38;5095574;28;20419;-67
2022/03/14 00:41:08;;;;;;;25.90;9.73;;;;;;;38.41;43.14;100760.03;5095290;28;20432;-69
2022/03/14 00:43:35;;;;;;;18.80;8.07;;;;;;;38.28;43.96;100753.59;5113370;28;20466;-69
2022/03/14 00:46:02;;;;;;;20.60;7.13;;;;;;;38.53;43.09;100754.03;5077696;28;20819;-67
2022/03/14 00:48:32;;;;;;;16.87;8.50;;;;;;;38.27;43.46;100751.22;5095042;28;20420;-67
2022/03/14 00:50:59;;;;;;;13.33;7.63;;;;;;;38.38;43.56;100752.53;5094977;28;20439;-67
2022/03/14 00:53:25;;;;;;;25.73;7.47;;;;;;;38.44;43.49;100748.59;5078142;28;20814;-70
2022/03/14 00:55:51;;;;;;;17.80;7.27;;;;;;;38.49;43.10;100753.88;5113192;28;20451;-70
2022/03/14 00:58:17;;;;;;;14.40;7.00;;;;;;;38.43;42.74;100747.00;5113141;28;20515;-67
2022/03/14 01:00:44;;;;;;;26.13;9.80;;;;;;;38.38;43.04;100747.94;5078129;28;20419;-67
2022/03/14 01:03:10;;;;;;;18.20;8.60;;;;;;;38.31;43.59;100741.38;5094921;28;20554;-67
2022/03/14 01:05:36;;;;;;;17.40;8.40;;;;;;;38.49;43.22;100734.91;5094623;28;20433;-69
2022/03/14 01:08:03;;;;;;;20.33;6.77;;;;;;;38.60;42.84;100738.13;5113129;28;20388;-69
2022/03/14 01:10:29;;;;;;;26.37;10.27;;;;;;;38.31;43.29;100735.94;5094765;28;20423;-68
2022/03/14 01:12:56;;;;;;;16.33;8.00;;;;;;;38.15;43.49;100743.63;5113146;28;20479;-67
2022/03/14 01:15:22;;;;;;;15.53;7.70;;;;;;;38.22;43.22;100752.09;5094668;28;20514;-69
2022/03/14 01:17:48;;;;;;;12.90;7.27;;;;;;;38.31;43.38;100750.28;5094768;28;20879;-69
2022/03/14 01:20:15;;;;;;;15.80;8.00;;;;;;;38.17;43.70;100750.31;5094953;28;20920;-67
2022/03/14 01:22:41;;;;;;;14.50;7.60;;;;;;;38.26;43.84;100749.59;5094849;28;20403;-69
2022/03/14 01:25:07;;;;;;;14.67;8.23;;;;;;;38.36;43.65;100749.31;5112781;28;20424;-69
2022/03/14 01:27:34;;;;;;;21.40;9.13;;;;;;;38.39;43.89;100749.53;5097097;28;20809;-68
2022/03/14 01:30:00;;;;;;;28.87;8.00;;;;;;;38.39;43.81;100744.09;5095544;28;20419;-69
2022/03/14 01:32:26;;;;;;;26.93;8.70;;;;;;;38.39;43.69;100748.72;5094566;28;20416;-70
2022/03/14 01:34:53;;;;;;;25.47;9.10;;;;;;;38.31;43.60;100749.50;5094406;28;20893;-69
2022/03/14 01:37:19;;;;;;;16.20;7.50;;;;;;;38.30;43.24;100759.50;5094337;28;20455;-70
2022/03/14 01:39:46;;;;;;;17.23;8.37;;;;;;;38.48;43.06;100746.84;5094353;28;20422;-69
2022/03/14 01:42:17;;;;;;;19.00;7.30;;;;;;;38.31;43.28;100750.28;5077458;28;20420;-70
2022/03/14 01:44:46;;;;;;;17.17;6.73;;;;;;;38.22;43.33;100754.81;5094000;28;20420;-69
2022/03/14 01:47:14;;;;;;;13.97;7.13;;;;;;;38.38;43.57;100747.13;5093953;28;20460;-70
2022/03/14 01:49:42;;;;;;;15.37;7.00;;;;;;;38.40;43.57;100750.31;5112515;28;20392;-68
2022/03/14 01:52:09;;;;;;;21.80;7.00;;;;;;;38.42;43.93;100750.78;5094110;28;20499;-69
2022/03/14 01:54:36;;;;;;;19.80;8.50;;;;;;;38.17;44.55;100747.63;5093975;28;20432;-69
2022/03/14 01:57:02;;;;;;;15.30;8.20;;;;;;;38.01;44.89;100741.00;5112031;28;20556;-70
2022/03/14 01:59:29;;;;;;;14.43;8.60;;;;;;;38.09;44.73;100745.66;5094249;28;20381;-67
2022/03/14 02:01:56;;;;;;;19.77;8.80;;;;;;;37.89;45.25;100740.78;5094148;28;20443;-69
2022/03/14 02:04:23;;;;;;;13.57;8.17;;;;;;;38.06;44.82;100750.88;5094028;28;20895;-67
2022/03/14 02:06:52;;;;;;;19.93;9.20;;;;;;;37.90;44.98;100745.88;5093895;28;20423;-69
2022/03/14 02:09:20;;;;;;;18.40;9.30;;;;;;;37.94;45.31;100747.94;5093990;28;20424;-68
2022/03/14 02:11:55;;;;;;;24.17;9.73;;;;;;;38.01;44.89;100742.91;5093791;28;20925;-67
2022/03/14 02:14:22;;;;;;;15.10;10.87;;;;;;;38.20;44.63;100740.00;5093861;28;20419;-67
2022/03/14 02:16:48;;;;;;;23.73;11.80;;;;;;;38.18;44.34;100743.00;5093787;28;20536;-67
2022/03/14 02:19:15;;;;;;;22.40;11.10;;;;;;;38.32;43.99;100751.09;5112279;28;20388;-67
2022/03/14 02:21:41;;;;;;;19.30;11.27;;;;;;;38.08;44.75;100745.97;5077205;28;20415;-67
2022/03/14 02:24:07;;;;;;;35.90;14.50;;;;;;;38.34;44.23;100757.78;5093837;28;20427;-67
2022/03/14 02:26:39;;;;;;;27.30;11.30;;;;;;;37.99;44.63;100745.91;5093869;28;20412;-69
2022/03/14 02:29:10;;;;;;;23.50;14.33;;;;;;;38.20;43.92;100751.63;5111846;28;20428;-69
2022/03/14 02:31:36;;;;;;;24.10;11.53;;;;;;;38.06;44.27;100751.72;5111962;28;20400;-69
2022/03/14 02:34:09;;;;;;;14.50;10.57;;;;;;;37.83;45.30;100755.53;5111981;28;20750;-69
2022/03/14 02:36:39;;;;;;;21.90;10.93;;;;;;;37.35;46.13;100745.25;5093673;28;20473;-69
2022/03/14 02:39:06;;;;;;;21.37;12.63;;;;;;;37.43;46.04;100746.41;5093680;28;20431;-67
2022/03/14 02:41:32;;;;;;;21.93;10.33;;;;;;;37.64;45.08;100740.25;5093771;28;20415;-69
2022/03/14 02:44:01;;;;;;;25.60;11.97;;;;;;;37.65;45.31;100749.97;5093534;28;20467;-69
2022/03/14 02:46:27;;;;;;;22.13;9.90;;;;;;;37.54;45.56;100743.19;5093566;28;20471;-69
2022/03/14 02:48:53;;;;;;;29.60;11.13;;;;;;;37.51;46.01;100748.41;5093624;28;20893;-67
2022/03/14 02:51:20;;;;;;;14.90;11.17;;;;;;;37.78;44.85;100748.31;5093465;28;20438;-67
2022/03/14 02:53:46;;;;;;;23.23;10.50;;;;;;;37.51;45.43;100748.41;5093592;28;20459;-67
2022/03/14 02:56:12;;;;;;;15.17;10.10;;;;;;;37.80;44.97;100734.44;5093525;28;20977;-67
2022/03/14 02:58:39;;;;;;;17.67;9.67;;;;;;;37.68;45.56;100734.19;5093508;28;20419;-68
2022/03/14 03:01:05;;;;;;;17.97;9.53;;;;;;;37.70;45.28;100734.72;5093475;28;20831;-68
2022/03/14 03:03:32;;;;;;;22.87;11.07;;;;;;;37.75;45.23;100738.09;5076780;28;20427;-67
2022/03/14 03:05:58;;;;;;;28.37;10.67;;;;;;;37.44;45.96;100746.13;5093409;28;20973;-68
2022/03/14 03:08:25;;;;;;;21.70;11.80;;;;;;;36.73;47.54;100756.47;5093400;28;20468;-69
2022/03/14 03:10:55;;;;;;;28.90;13.33;;;;;;;36.96;47.18;100760.13;5096148;28;20948;-67
2022/03/14 03:13:22;;;;;;;19.60;11.57;;;;;;;37.12;46.58;100758.69;5096946;28;20482;-67
2022/03/14 03:15:48;;;;;;;18.43;11.30;;;;;;;37.24;46.60;100757.38;5079950;28;20550;-69
2022/03/14 03:18:14;;;;;;;18.63;9.93;;;;;;;37.42;46.08;100753.75;5115260;28;20408;-69
2022/03/14 03:20:42;;;;;;;18.43;13.40;;;;;;;37.44;46.16;100751.53;5096796;28;20422;-69
2022/03/14 03:23:08;;;;;;;16.87;10.13;;;;;;;37.50;46.45;100760.31;5096806;28;20467;-69
2022/03/14 03:25:34;;;;;;;28.53;11.50;;;;;;;37.56;45.77;100759.91;5096863;28;20416;-67
2022/03/14 03:28:00;;;;;;;24.10;12.53;;;;;;;37.60;45.41;100758.19;5096471;28;20496;-69
2022/03/14 03:30:30;;;;;;;33.90;12.97;;;;;;;37.52;46.24;100758.94;5096707;28;20415;-67
2022/03/14 03:32:56;;;;;;;22.63;12.77;;;;;;;37.49;45.96;100756.81;5115104;28;20487;-69
2022/03/14 03:35:22;;;;;;;19.60;10.17;;;;;;;37.26;46.44;100768.66;5114692;28;20404;-68
2022/03/14 03:37:48;;;;;;;22.70;12.53;;;;;;;37.12;46.72;100758.69;5114807;28;20443;-69
2022/03/14 03:40:18;;;;;;;28.27;13.30;;;;;;;37.29;46.73;100757.25;5096424;28;20480;-67
2022/03/14 03:42:44;;;;;;;26.27;13.07;;;;;;;37.15;46.61;100754.59;5096397;28;20416;-69
2022/03/14 03:45:13;;;;;;;26.17;12.97;;;;;;;37.38;46.19;100744.63;5096474;28;20439;-69
2022/03/14 03:47:41;;;;;;;21.37;10.77;;;;;;;37.16;46.93;100750.78;5079832;28;20464;-67
2022/03/14 03:50:08;;;;;;;20.83;12.57;;;;;;;37.01;47.15;100745.66;5114657;28;20392;-66
2022/03/14 03:52:34;;;;;;;24.10;11.47;;;;;;;37.11;46.84;100750.88;5096172;28;20416;-67
2022/03/14 03:55:00;;;;;;;25.23;11.70;;;;;;;36.97;47.43;100752.81;5096128;28;20805;-67
2022/03/14 03:57:26;;;;;;;19.67;11.30;;;;;;;36.83;47.79;100742.78;5096047;28;20479;-67
2022/03/14 03:59:53;;;;;;;23.77;11.77;;;;;;;37.02;46.99;100739.97;5096142;28;20789;-69
2022/03/14 04:02:19;;;;;;;20.33;12.17;;;;;;;37.03;47.06;100733.47;5096060;28;20420;-69
2022/03/14 04:04:53;;;;;;;18.57;11.33;;;;;;;37.07;47.09;100731.75;5095949;28;20499;-67
2022/03/14 04:07:23;;;;;;;25.53;11.77;;;;;;;36.98;46.88;100725.47;5114625;28;20396;-66
2022/03/14 04:09:56;;;;;;;26.40;13.83;;;;;;;36.85;47.24;100728.94;5095927;28;20450;-69
2022/03/14 04:12:24;;;;;;;18.50;10.83;;;;;;;37.12;46.21;100738.94;5095878;28;20415;-67
2022/03/14 04:14:51;;;;;;;24.80;13.30;;;;;;;36.81;46.85;100736.84;5095750;28;20408;-66
2022/03/14 04:17:18;;;;;;;21.80;11.97;;;;;;;36.90;47.17;100733.50;5079120;28;20459;-66
2022/03/14 04:19:45;;;;;;;20.23;11.83;;;;;;;36.90;46.73;100720.78;5079147;28;20415;-67
2022/03/14 04:22:14;;;;;;;19.40;11.77;;;;;;;36.30;48.30;100715.38;5113854;28;20392;-69
2022/03/14 04:24:40;;;;;;;22.17;14.23;;;;;;;36.62;47.27;100713.75;5114013;28;20396;-69
2022/03/14 04:27:06;;;;;;;23.47;12.30;;;;;;;36.96;47.09;100727.69;5113786;28;20846;-69
2022/03/14 04:29:33;;;;;;;21.73;11.30;;;;;;;36.79;47.17;100741.75;5095552;28;20408;-69
2022/03/14 04:31:59;;;;;;;17.20;11.83;;;;;;;36.60;47.87;100746.47;5095454;28;20416;-70
2022/03/14 04:34:25;;;;;;;20.23;12.13;;;;;;;36.86;46.81;100749.47;5078640;28;20427;-67
2022/03/14 04:36:52;;;;;;;27.40;13.33;;;;;;;36.91;46.35;100748.59;5095366;28;20455;-67
2022/03/14 04:39:18;;;;;;;27.53;12.67;;;;;;;37.02;46.26;100745.38;5078486;28;20443;-68
2022/03/14 04:41:45;;;;;;;27.63;14.43;;;;;;;37.24;45.61;100747.34;5095123;28;20411;-67
2022/03/14 04:44:11;;;;;;;18.60;13.37;;;;;;;37.28;45.84;100748.34;5095285;28;20424;-67
2022/03/14 04:46:37;;;;;;;30.10;13.80;;;;;;;36.94;46.35;100746.09;5078057;28;21103;-69
2022/03/14 04:49:04;;;;;;;26.13;13.50;;;;;;;36.96;46.78;100749.31;5095105;28;20436;-69
2022/03/14 04:51:32;;;;;;;24.30;12.73;;;;;;;36.45;47.65;100746.75;5094762;28;20455;-69
2022/03/14 04:53:59;;;;;;;23.77;11.77;;;;;;;36.45;47.79;100750.25;5113414;28;20389;-69
2022/03/14 04:56:25;;;;;;;21.30;10.70;;;;;;;36.57;47.25;100750.56;5078293;28;20600;-69
2022/03/14 04:58:52;;;;;;;19.33;13.90;;;;;;;36.91;46.73;100744.00;5094839;28;20448;-67
2022/03/14 05:01:23;;;;;;;25.00;11.50;;;;;;;37.19;45.73;100746.66;5078167;28;20416;-69
2022/03/14 05:03:52;;;;;;;25.40;12.67;;;;;;;36.83;46.94;100750.06;5094825;28;20411;-67
2022/03/14 05:06:19;;;;;;;16.70;14.00;;;;;;;36.99;46.34;100751.38;5078319;28;20529;-67
2022/03/14 05:08:46;;;;;;;26.20;12.33;;;;;;;37.22;45.63;100746.06;5078028;28;20416;-66
2022/03/14 05:11:14;;;;;;;20.30;12.50;;;;;;;37.41;45.26;100735.13;5094911;28;20793;-67
2022/03/14 05:13:41;;;;;;;23.20;12.70;;;;;;;37.09;46.14;100742.28;5094705;28;20447;-67
2022/03/14 05:16:08;;;;;;;22.30;13.17;;;;;;;37.14;46.07;100758.41;5094798;28;20452;-67
2022/03/14 05:18:34;;;;;;;25.23;13.50;;;;;;;36.97;46.16;100763.63;5095103;28;20440;-67
2022/03/14 05:21:01;;;;;;;27.03;13.80;;;;;;;36.96;46.26;100760.13;5091096;28;20430;-67
2022/03/14 05:23:28;;;;;;;17.80;12.07;;;;;;;36.79;46.87;100765.28;5092542;28;20507;-67
2022/03/14 05:25:55;;;;;;;21.07;12.53;;;;;;;36.96;46.35;100768.22;5074388;28;20498;-67
2022/03/14 05:28:21;;;;;;;23.90;13.63;;;;;;;37.10;46.35;100771.72;5092247;28;20954;-67
2022/03/14 05:30:48;;;;;;;21.57;13.37;;;;;;;36.66;47.11;100775.00;5092095;28;20500;-67
2022/03/14 05:33:14;;;;;;;26.20;15.47;;;;;;;36.59;47.13;100767.28;5071426;28;20422;-67
2022/03/14 05:35:40;;;;;;;33.20;20.80;;;;;;;36.79;46.40;100768.00;5073661;28;20440;-67
2022/03/14 05:38:06;;;;;;;31.00;15.07;;;;;;;37.00;46.58;100765.72;5073422;28;20492;-69
2022/03/14 05:40:32;;;;;;;19.67;14.50;;;;;;;37.07;46.02;100766.09;5073741;28;20935;-67
2022/03/14 05:43:04;;;;;;;26.50;15.77;;;;;;;37.13;45.85;100768.38;5072328;28;20822;-67
2022/03/14 05:45:31;;;;;;;24.37;15.47;;;;;;;36.96;46.34;100757.41;5070476;28;20430;-69
2022/03/14 05:47:57;;;;;;;24.37;13.17;;;;;;;37.12;45.43;100761.38;5038789;28;20512;-67
2022/03/14 05:50:24;;;;;;;33.93;16.40;;;;;;;37.15;45.47;100757.28;5037300;28;20418;-67
2022/03/14 05:52:51;;;;;;;25.00;14.20;;;;;;;36.68;46.82;100767.38;5036937;28;20421;-69
2022/03/14 05:55:18;;;;;;;27.67;15.23;;;;;;;36.76;46.68;100774.78;5036065;28;20442;-69
2022/03/14 05:57:45;;;;;;;27.20;15.90;;;;;;;37.23;45.11;100772.78;5044004;28;20445;-69
2022/03/14 06:00:12;;;;;;;24.47;15.03;;;;;;;36.80;46.68;100781.22;5071958;28;20390;-71
2022/03/14 06:02:38;;;;;;;25.80;14.77;;;;;;;36.59;46.86;100785.41;5053655;28;20417;-71
2022/03/14 06:05:05;;;;;;;28.40;15.23;;;;;;;36.57;47.03;100795.69;5053646;28;20401;-70
2022/03/14 06:07:32;;;;;;;24.43;15.80;;;;;;;36.92;46.32;100804.28;5035618;28;20445;-69
2022/03/14 06:09:58;;;;;;;24.40;16.47;;;;;;;37.21;45.25;100807.47;5053187;28;20453;-73
2022/03/14 06:12:29;;;;;;;26.43;16.73;;;;;;;37.29;45.32;100804.03;5053344;28;20418;-70
2022/03/14 06:14:57;;;;;;;20.63;16.57;;;;;;;37.42;44.89;100821.38;5053178;28;20417;-70
2022/03/14 06:17:23;;;;;;;33.00;17.00;;;;;;;37.18;45.29;100823.50;5036974;28;20475;-72
2022/03/14 06:19:50;;;;;;;25.97;16.63;;;;;;;37.06;45.67;100822.09;5053414;28;20405;-69
2022/03/14 06:22:21;;;;;;;28.90;17.77;;;;;;;37.38;45.07;100815.78;5033924;28;20457;-70
2022/03/14 06:24:49;;;;;;;26.83;16.13;;;;;;;37.52;44.94;100813.06;5069377;28;20417;-71
2022/03/14 06:27:43;;;;;;;25.87;17.13;;;;;;;37.25;45.03;100818.47;5037027;28;20447;-71
2022/03/14 06:30:10;;;;;;;34.90;18.43;;;;;;;36.95;45.91;100826.09;5053482;28;20432;-69
2022/03/14 06:32:38;;;;;;;29.80;19.23;;;;;;;36.99;45.87;100829.81;5037128;28;21017;-71
2022/03/14 06:35:06;;;;;;;31.50;21.23;;;;;;;37.38;45.16;100829.31;5053830;28;20414;-71
2022/03/14 06:37:32;;;;;;;33.17;16.70;;;;;;;37.52;44.80;100842.81;5020574;28;20456;-70
2022/03/14 06:39:58;;;;;;;33.20;19.53;;;;;;;37.63;44.36;100835.28;5053407;28;20423;-69
2022/03/14 06:42:25;;;;;;;31.33;18.80;;;;;;;37.85;43.87;100837.25;5053462;28;20479;-69
2022/03/14 06:44:51;;;;;;;28.23;17.03;;;;;;;38.10;43.35;100842.06;5072756;28;20398;-69
2022/03/14 06:47:17;;;;;;;26.90;18.53;;;;;;;37.97;43.74;100834.00;5088951;28;20456;-71
2022/03/14 06:49:44;;;;;;;29.43;17.77;;;;;;;37.97;43.83;100842.13;5077169;28;20470;-71
2022/03/14 06:52:15;;;;;;;36.60;19.30;;;;;;;38.04;43.42;100846.00;5077165;28;20416;-71
2022/03/14 06:54:41;;;;;;;30.17;18.30;;;;;;;38.01;43.33;100848.53;5095215;28;20389;-68
2022/03/14 06:57:09;;;;;;;35.93;19.33;;;;;;;37.77;43.97;100860.41;5095253;28;20445;-68
2022/03/14 06:59:36;;;;;;;32.53;19.80;;;;;;;37.82;43.84;100870.38;5077111;28;20415;-69
2022/03/14 07:02:03;;;;;;;35.47;20.40;;;;;;;37.84;43.51;100881.69;5074721;28;20424;-69
2022/03/14 07:04:30;;;;;;;40.10;25.23;;;;;;;37.83;44.00;100883.59;5076477;28;20417;-71
2022/03/14 07:06:56;;;;;;;38.40;26.50;;;;;;;37.70;43.92;100889.00;5075521;28;20991;-68
2022/03/14 07:09:22;;;;;;;36.07;24.07;;;;;;;37.59;44.58;100878.38;5094771;28;20444;-69
2022/03/14 07:11:51;;;;;;;35.87;21.33;;;;;;;37.60;44.33;100881.91;5075434;28;20431;-69
2022/03/14 07:14:22;;;;;;;46.77;25.27;;;;;;;37.62;44.48;100885.88;5075337;28;20416;-69
2022/03/14 07:16:49;;;;;;;36.27;24.20;;;;;;;37.75;43.81;100888.88;5094011;28;20464;-70
2022/03/14 07:19:15;;;;;;;34.70;24.07;;;;;;;37.74;44.17;100890.78;5059291;28;20987;-69
2022/03/14 07:21:41;;;;;;;42.30;25.37;;;;;;;37.60;44.20;100893.53;5067563;28;20486;-69
2022/03/14 07:24:07;;;;;;;31.40;21.20;;;;;;;37.63;44.33;100892.94;5094094;28;20436;-68
2022/03/14 07:26:34;;;;;;;35.27;23.83;;;;;;;37.62;44.36;100895.91;5070373;28;20468;-69
2022/03/14 07:29:01;;;;;;;30.10;20.60;;;;;;;37.73;44.40;100899.22;5067564;28;20490;-71
2022/03/14 07:31:27;;;;;;;39.50;22.03;;;;;;;37.77;43.94;100905.63;5067554;28;20424;-69
2022/03/14 07:33:53;;;;;;;33.63;21.43;;;;;;;37.54;44.16;100921.78;5075772;28;20441;-68
2022/03/14 07:36:20;;;;;;;33.10;22.10;;;;;;;37.68;44.06;100920.97;5067314;28;20962;-69
2022/03/14 07:38:46;;;;;;;33.57;21.00;;;;;;;37.64;44.21;100918.88;5068656;28;20416;-69
2022/03/14 07:41:13;;;;;;;38.73;21.90;;;;;;;37.65;43.83;100931.31;5075561;28;20425;-69
2022/03/14 07:43:41;;;;;;;31.10;19.93;;;;;;;37.73;43.93;100931.69;5075661;28;20825;-71
2022/03/14 07:46:07;;;;;;;48.40;24.07;;;;;;;37.51;43.95;100930.53;5072081;28;20472;-71
2022/03/14 07:48:34;;;;;;;32.20;20.07;;;;;;;37.44;44.66;100932.00;5056345;28;20471;-70
2022/03/14 07:51:03;;;;;;;39.73;22.00;;;;;;;37.50;44.22;100939.72;5056124;28;20417;-69
2022/03/14 07:53:33;;;;;;;30.60;20.20;;;;;;;37.61;43.90;100945.75;5052745;28;20417;-69
2022/03/14 07:55:59;;;;;;;32.13;18.87;;;;;;;37.63;44.06;100954.38;5055393;28;20460;-71
2022/03/14 07:58:25;;;;;;;37.30;22.60;;;;;;;37.55;44.45;100946.94;5055948;28;20475;-69
2022/03/14 08:00:51;;;;;;;43.67;21.70;;;;;;;37.65;43.96;100954.88;5073908;28;20496;-71
2022/03/14 08:03:18;;;;;;;35.07;18.37;;;;;;;37.56;44.35;100962.88;5055480;28;20457;-71
2022/03/14 08:05:46;;;;;;;32.57;20.30;;;;;;;37.57;43.84;100963.72;5055686;28;20410;-71
2022/03/14 08:08:15;;;;;;;31.37;20.37;;;;;;;37.43;44.81;100960.97;5057971;28;20468;-69
2022/03/14 08:10:41;;;;;;;28.20;18.33;;;;;;;37.30;44.69;100959.84;5055746;28;20414;-69
2022/03/14 08:13:08;;;;;;;22.70;16.13;;;;;;;37.35;44.60;100959.78;5055068;28;20418;-69
2022/03/14 08:15:37;;;;;;;34.40;22.50;;;;;;;37.43;44.61;100973.72;5055238;28;20413;-71
2022/03/14 08:18:07;;;;;;;33.70;17.80;;;;;;;37.12;45.23;100963.44;5055275;28;20441;-69
2022/03/14 08:20:34;;;;;;;41.10;21.40;;;;;;;37.26;44.73;100963.44;5055362;28;20414;-71
2022/03/14 08:23:03;;;;;;;40.83;18.70;;;;;;;37.38;44.51;100963.78;5055342;28;20422;-71
2022/03/14 08:25:31;;;;;;;36.03;17.83;;;;;;;37.24;44.94;100960.25;5055426;28;20870;-69
2022/03/14 08:27:57;;;;;;;25.33;17.70;;;;;;;37.21;45.08;100960.84;5055360;28;21030;-71
2022/03/14 08:30:23;;;;;;;32.43;20.97;;;;;;;37.12;45.56;100968.84;5073195;28;20488;-71
2022/03/14 08:32:51;;;;;;;23.47;17.33;;;;;;;36.91;45.66;100968.41;5055345;28;20413;-70
2022/03/14 08:35:20;;;;;;;35.53;18.27;;;;;;;36.91;45.98;100978.41;5054968;28;20469;-69
2022/03/14 08:37:49;;;;;;;26.50;18.50;;;;;;;36.50;46.23;100982.53;5055279;28;21034;-69
2022/03/14 08:40:18;;;;;;;32.70;16.03;;;;;;;36.55;46.09;100987.84;5055293;28;20442;-71
2022/03/14 08:42:45;;;;;;;44.13;20.77;;;;;;;36.72;46.25;100987.34;5038792;28;20449;-71
2022/03/14 08:45:12;;;;;;;29.80;17.50;;;;;;;36.89;45.94;100992.19;5054964;28;20914;-71
2022/03/14 08:47:38;;;;;;;31.50;18.00;;;;;;;37.01;45.37;100992.53;5071296;28;20464;-69
2022/03/14 08:50:07;;;;;;;36.20;20.07;;;;;;;37.14;44.94;101001.81;5058373;28;20500;-69
2022/03/14 08:52:34;;;;;;;27.13;18.03;;;;;;;37.19;45.50;100981.97;5042072;28;20841;-71
2022/03/14 08:55:01;;;;;;;37.53;19.17;;;;;;;37.04;45.23;100994.66;5093128;28;20393;-69
2022/03/14 08:57:27;;;;;;;43.33;22.60;;;;;;;36.91;45.57;101000.84;5074801;28;20456;-69
2022/03/14 08:59:54;;;;;;;27.10;18.83;;;;;;;37.02;45.26;100994.16;5058196;28;20421;-69
2022/03/14 09:02:21;;;;;;;31.33;17.97;;;;;;;37.20;44.58;100995.22;5074774;28;20463;-71
2022/03/14 09:04:47;;;;;;;34.70;19.57;;;;;;;36.91;45.77;101000.84;5074596;28;20496;-71
2022/03/14 09:07:27;;;;;;;28.60;17.97;;;;;;;36.97;44.73;100999.66;5074057;28;20405;-67
2022/03/14 09:09:54;;;;;;;27.73;17.17;;;;;;;37.12;44.51;100995.88;5092731;28;20412;-70
2022/03/14 09:12:20;;;;;;;36.53;19.30;;;;;;;36.95;44.65;100991.03;5074575;28;20495;-70
2022/03/14 09:14:48;;;;;;;25.13;17.10;;;;;;;37.04;44.22;100988.47;5092654;28;20532;-72
2022/03/14 09:17:15;;;;;;;29.03;17.67;;;;;;;36.93;44.71;100978.91;5092647;28;20440;-71
2022/03/14 09:19:41;;;;;;;36.03;17.87;;;;;;;36.88;44.92;100977.09;5074349;28;20436;-71
2022/03/14 09:22:08;;;;;;;32.80;17.13;;;;;;;36.54;45.45;100972.75;5074320;28;20941;-71
2022/03/14 09:24:36;;;;;;;30.10;17.20;;;;;;;36.54;44.63;100972.75;5074188;28;20440;-72
2022/03/14 09:27:04;;;;;;;26.50;14.67;;;;;;;36.90;44.33;100971.41;5074252;28;20776;-71
2022/03/14 09:29:30;;;;;;;26.67;14.53;;;;;;;36.95;44.17;100976.69;5091326;28;20986;-70
2022/03/14 09:31:57;;;;;;;28.20;14.40;;;;;;;37.02;43.90;100975.25;5073750;28;20417;-71
2022/03/14 09:34:23;;;;;;;28.10;13.60;;;;;;;37.40;43.48;100972.41;5073612;28;20460;-72
2022/03/14 09:40:17;;;;;;;36.30;16.97;;;;;;;37.48;43.10;100971.72;5092269;28;20511;-70
2022/03/14 10:01:17;;;;;;;31.20;18.43;;;;;;;35.71;48.64;100959.75;5161925;27;20292;-68
2022/03/14 10:03:44;;;;;;;27.93;17.27;;;;;;;36.32;45.75;100959.00;5151124;27;20493;-71
2022/03/14 10:06:10;;;;;;;27.60;16.50;;;;;;;36.88;44.31;100955.47;5129271;27;20432;-68
2022/03/14 10:08:37;;;;;;;26.77;16.43;;;;;;;37.30;43.66;100948.22;5111815;28;20437;-68
2022/03/14 10:11:03;;;;;;;32.40;14.67;;;;;;;37.41;42.96;100946.97;5128848;28;20498;-67
2022/03/14 10:13:29;;;;;;;25.63;15.93;;;;;;;37.53;42.83;100944.56;5130217;28;20403;-68
2022/03/14 10:15:55;;;;;;;23.73;15.27;;;;;;;37.84;42.27;100950.16;5111180;28;20434;-67
2022/03/14 10:18:21;;;;;;;21.30;12.23;;;;;;;37.96;42.07;100946.94;5110577;28;20471;-71
2022/03/14 10:20:56;;;;;;;27.33;12.17;;;;;;;38.02;41.91;100934.88;5111532;28;20454;-67
2022/03/14 10:23:30;;;;;;;23.53;13.27;;;;;;;37.79;42.03;100941.31;5129828;28;20383;-67
2022/03/14 10:25:57;;;;;;;24.83;12.47;;;;;;;37.62;42.04;100928.41;5129925;28;20387;-67
2022/03/14 10:28:28;;;;;;;29.90;14.33;;;;;;;37.90;42.29;100918.38;5129747;28;20816;-64
2022/03/14 10:30:54;;;;;;;27.40;13.40;;;;;;;38.08;41.60;100925.53;5111379;28;20399;-67
2022/03/14 10:33:24;;;;;;;30.57;13.67;;;;;;;38.14;41.20;100918.09;5111323;28;20412;-64
2022/03/14 10:35:54;;;;;;;24.37;11.77;;;;;;;38.25;41.38;100919.47;5111323;28;20399;-67
2022/03/14 10:38:21;;;;;;;36.07;13.90;;;;;;;37.98;41.27;100923.06;5111209;28;20443;-65
2022/03/14 10:40:48;;;;;;;26.13;12.17;;;;;;;37.92;41.56;100902.59;5111163;28;20447;-68
2022/03/14 10:43:26;;;;;;;22.40;11.13;;;;;;;37.56;42.36;100902.53;5111166;28;20803;-67
2022/03/14 10:45:54;;;;;;;21.63;12.93;;;;;;;37.90;41.61;100885.88;5111062;28;20912;-67
2022/03/14 10:48:52;;;;;;;25.23;12.50;;;;;;;38.00;41.73;100882.13;5111124;28;20402;-67
2022/03/14 10:51:18;;;;;;;26.17;13.90;;;;;;;37.87;41.39;100868.31;5077547;28;20431;-67
2022/03/14 10:53:46;;;;;;;29.10;12.80;;;;;;;38.20;41.72;100868.13;5121831;27;20418;-67
2022/03/14 10:56:14;;;;;;;20.33;12.30;;;;;;;38.13;41.47;100854.22;5130779;27;20410;-67
2022/03/14 10:58:40;;;;;;;20.17;10.60;;;;;;;37.95;41.62;100855.97;5130413;27;20484;-65
2022/03/14 11:01:08;;;;;;;26.83;10.83;;;;;;;38.15;41.52;100855.47;5118852;28;20462;-65
2022/03/14 11:03:42;;;;;;;24.03;11.47;;;;;;;38.23;40.87;100847.72;5100131;28;21017;-68
2022/03/14 11:06:10;;;;;;;28.43;12.40;;;;;;;38.35;41.08;100834.44;5118376;28;20457;-68
2022/03/14 11:08:42;;;;;;;21.93;9.93;;;;;;;38.41;40.49;100841.34;5120470;27;20414;-65
2022/03/14 11:11:16;;;;;;;21.97;10.23;;;;;;;38.34;41.30;100830.94;5095673;28;20441;-65
2022/03/14 11:13:48;;;;;;;17.70;9.70;;;;;;;38.48;40.62;100821.91;5107948;28;20952;-65
2022/03/14 11:16:26;;;;;;;19.53;11.50;;;;;;;38.55;40.63;100814.13;5104403;28;20488;-65
2022/03/14 11:18:53;;;;;;;20.57;10.10;;;;;;;38.50;40.52;100809.69;5085943;28;20531;-65
2022/03/14 11:21:24;;;;;;;20.83;10.03;;;;;;;38.44;40.48;100806.28;5087567;28;20474;-65
2022/03/14 11:23:51;;;;;;;22.20;9.20;;;;;;;38.53;40.22;100805.53;5081469;28;20445;-65
2022/03/14 11:26:20;;;;;;;17.47;9.40;;;;;;;38.48;40.60;100803.75;5076717;28;20416;-65
2022/03/14 11:28:48;;;;;;;25.17;10.70;;;;;;;38.49;40.56;100801.84;5109407;28;20438;-67
2022/03/14 11:31:17;;;;;;;18.97;8.97;;;;;;;38.49;40.89;100793.69;5114524;28;20394;-68
2022/03/14 11:33:44;;;;;;;18.33;9.73;;;;;;;38.56;40.44;100797.59;5112797;28;20459;-68
2022/03/14 11:36:11;;;;;;;23.43;9.83;;;;;;;38.65;39.89;100798.41;5114941;28;20921;-68